createdAt,value
2022-12-08T00:00:07.402Z,731.00
2022-12-08T00:00:37.400Z,728.00
2022-12-08T00:01:07.449Z,728.00
2022-12-08T00:01:37.547Z,729.00
2022-12-08T00:02:07.736Z,730.00
2022-12-08T00:02:37.778Z,728.00
2022-12-08T00:03:07.781Z,730.00
2022-12-08T00:03:37.747Z,730.00
2022-12-08T00:04:07.794Z,731.00
2022-12-08T00:04:37.794Z,730.00
2022-12-08T00:05:07.914Z,730.00
2022-12-08T00:05:37.911Z,730.00
2022-12-08T00:06:07.922Z,731.00
2022-12-08T00:06:38.039Z,731.00
2022-12-08T00:07:08.038Z,729.00
2022-12-08T00:07:38.090Z,730.00
2022-12-08T00:08:08.194Z,729.00
2022-12-08T00:08:38.053Z,729.00
2022-12-08T00:09:08.180Z,729.00
2022-12-08T00:09:39.686Z,730.00
2022-12-08T00:10:39.826Z,730.00
2022-12-08T00:10:48.923Z,730.00
2022-12-08T00:11:08.290Z,730.00
2022-12-08T00:11:38.296Z,728.00
2022-12-08T00:12:08.290Z,728.00
2022-12-08T00:12:38.407Z,729.00
2022-12-08T00:13:08.532Z,727.00
2022-12-08T00:13:38.525Z,727.00
2022-12-08T00:14:08.563Z,727.00
2022-12-08T00:14:38.532Z,727.00
2022-12-08T00:15:08.650Z,726.00
2022-12-08T00:15:38.763Z,724.00
2022-12-08T00:16:08.938Z,724.00
2022-12-08T00:16:38.985Z,723.00
2022-12-08T00:17:09.033Z,723.00
2022-12-08T00:17:39.024Z,723.00
2022-12-08T00:18:09.023Z,724.00
2022-12-08T00:18:39.141Z,724.00
2022-12-08T00:19:09.141Z,723.00
2022-12-08T00:19:39.137Z,722.00
2022-12-08T00:20:09.249Z,721.00
2022-12-08T00:20:39.369Z,719.00
2022-12-08T00:21:09.366Z,720.00
2022-12-08T00:21:39.359Z,720.00
2022-12-08T00:22:09.357Z,722.00
2022-12-08T00:22:39.348Z,725.00
2022-12-08T00:23:09.465Z,726.00
2022-12-08T00:23:39.460Z,726.00
2022-12-08T00:24:09.461Z,726.00
2022-12-08T00:24:39.480Z,727.00
2022-12-08T00:25:09.566Z,725.00
2022-12-08T00:25:39.599Z,726.00
2022-12-08T00:26:09.599Z,726.00
2022-12-08T00:26:39.709Z,725.00
2022-12-08T00:27:09.848Z,724.00
2022-12-08T00:27:39.824Z,723.00
2022-12-08T00:28:09.942Z,722.00
2022-12-08T00:28:39.939Z,720.00
2022-12-08T00:29:15.839Z,719.00
2022-12-08T00:29:40.108Z,719.00
2022-12-08T00:30:10.074Z,718.00
2022-12-08T00:30:40.209Z,718.00
2022-12-08T00:31:10.209Z,719.00
2022-12-08T00:31:40.416Z,720.00
2022-12-08T00:32:10.473Z,722.00
2022-12-08T00:32:40.345Z,722.00
2022-12-08T00:33:10.460Z,720.00
2022-12-08T00:33:40.457Z,721.00
2022-12-08T00:34:10.589Z,722.00
2022-12-08T00:34:40.585Z,720.00
2022-12-08T00:35:10.579Z,721.00
2022-12-08T00:35:43.200Z,723.00
2022-12-08T00:36:10.795Z,723.00
2022-12-08T00:36:40.791Z,723.00
2022-12-08T00:37:10.791Z,723.00
2022-12-08T00:37:40.780Z,726.00
2022-12-08T00:38:10.778Z,727.00
2022-12-08T00:38:40.895Z,728.00
2022-12-08T00:39:11.009Z,727.00
2022-12-08T00:39:41.125Z,725.00
2022-12-08T00:40:11.121Z,726.00
2022-12-08T00:40:41.252Z,723.00
2022-12-08T00:41:11.244Z,722.00
2022-12-08T00:41:41.240Z,722.00
2022-12-08T00:42:11.357Z,723.00
2022-12-08T00:42:41.473Z,724.00
2022-12-08T00:43:11.589Z,724.00
2022-12-08T00:43:41.586Z,723.00
2022-12-08T00:44:11.705Z,721.00
2022-12-08T00:44:41.725Z,722.00
2022-12-08T00:45:11.697Z,724.00
2022-12-08T00:45:41.901Z,722.00
2022-12-08T00:46:12.047Z,723.00
2022-12-08T00:46:41.976Z,723.00
2022-12-08T00:47:12.094Z,723.00
2022-12-08T00:47:42.211Z,724.00
2022-12-08T00:48:12.207Z,724.00
2022-12-08T00:48:42.325Z,721.00
2022-12-08T00:49:13.907Z,720.00
2022-12-08T00:49:43.027Z,718.00
2022-12-08T00:50:13.061Z,718.00
2022-12-08T00:50:42.675Z,717.00
2022-12-08T00:51:12.764Z,717.00
2022-12-08T00:51:42.840Z,715.00
2022-12-08T00:52:12.935Z,715.00
2022-12-08T00:52:43.009Z,715.00
2022-12-08T00:53:13.090Z,714.00
2022-12-08T00:53:43.175Z,715.00
2022-12-08T00:54:13.254Z,715.00
2022-12-08T00:54:43.346Z,714.00
2022-12-08T00:55:13.426Z,713.00
2022-12-08T00:55:43.507Z,714.00
2022-12-08T00:56:13.584Z,716.00
2022-12-08T00:56:43.672Z,715.00
2022-12-08T00:57:13.749Z,715.00
2022-12-08T00:57:43.835Z,715.00
2022-12-08T00:58:13.919Z,716.00
2022-12-08T00:58:43.992Z,716.00
2022-12-08T00:59:14.078Z,714.00
2022-12-08T00:59:44.209Z,714.00
2022-12-08T01:00:14.166Z,713.00
2022-12-08T01:00:44.349Z,714.00
2022-12-08T01:01:14.407Z,712.00
2022-12-08T01:01:44.484Z,712.00
2022-12-08T01:02:14.478Z,712.00
2022-12-08T01:02:44.596Z,713.00
2022-12-08T01:03:14.717Z,712.00
2022-12-08T01:03:44.740Z,712.00
2022-12-08T01:04:14.786Z,710.00
2022-12-08T01:04:44.906Z,709.00
2022-12-08T01:05:14.899Z,712.00
2022-12-08T01:05:45.016Z,710.00
2022-12-08T01:06:15.015Z,709.00
2022-12-08T01:06:45.011Z,708.00
2022-12-08T01:07:15.005Z,707.00
2022-12-08T01:07:45.092Z,707.00
2022-12-08T01:08:15.206Z,707.00
2022-12-08T01:08:45.086Z,708.00
2022-12-08T01:09:15.085Z,709.00
2022-12-08T01:09:45.199Z,711.00
2022-12-08T01:10:15.313Z,711.00
2022-12-08T01:10:45.436Z,712.00
2022-12-08T01:11:15.435Z,712.00
2022-12-08T01:11:45.444Z,712.00
2022-12-08T01:12:15.456Z,709.00
2022-12-08T01:12:45.455Z,711.00
2022-12-08T01:13:15.572Z,711.00
2022-12-08T01:13:45.577Z,712.00
2022-12-08T01:14:15.588Z,711.00
2022-12-08T01:14:45.688Z,710.00
2022-12-08T01:15:15.704Z,710.00
2022-12-08T01:15:45.676Z,709.00
2022-12-08T01:16:15.817Z,706.00
2022-12-08T01:16:45.989Z,707.00
2022-12-08T01:17:15.995Z,707.00
2022-12-08T01:17:46.118Z,708.00
2022-12-08T01:18:16.231Z,709.00
2022-12-08T01:18:46.352Z,710.00
2022-12-08T01:19:16.347Z,711.00
2022-12-08T01:19:46.466Z,712.00
2022-12-08T01:20:16.594Z,711.00
2022-12-08T01:20:46.581Z,711.00
2022-12-08T01:21:16.705Z,710.00
2022-12-08T01:21:46.694Z,710.00
2022-12-08T01:22:16.691Z,709.00
2022-12-08T01:22:46.689Z,709.00
2022-12-08T01:23:16.804Z,708.00
2022-12-08T01:23:46.941Z,708.00
2022-12-08T01:24:16.934Z,709.00
2022-12-08T01:24:47.052Z,708.00
2022-12-08T01:25:17.171Z,707.00
2022-12-08T01:25:47.288Z,706.00
2022-12-08T01:26:17.410Z,707.00
2022-12-08T01:26:47.522Z,708.00
2022-12-08T01:27:17.516Z,706.00
2022-12-08T01:27:47.637Z,705.00
2022-12-08T01:28:17.753Z,705.00
2022-12-08T01:28:47.873Z,704.00
2022-12-08T01:29:17.994Z,703.00
2022-12-08T01:29:47.987Z,702.00
2022-12-08T01:30:18.012Z,703.00
2022-12-08T01:30:48.069Z,703.00
2022-12-08T01:31:18.217Z,702.00
2022-12-08T01:31:48.088Z,704.00
2022-12-08T01:32:18.085Z,704.00
2022-12-08T01:32:48.199Z,703.00
2022-12-08T01:33:18.193Z,702.00
2022-12-08T01:33:48.190Z,703.00
2022-12-08T01:34:18.308Z,702.00
2022-12-08T01:34:48.301Z,703.00
2022-12-08T01:35:18.293Z,705.00
2022-12-08T01:35:48.430Z,704.00
2022-12-08T01:36:18.419Z,703.00
2022-12-08T01:36:48.537Z,701.00
2022-12-08T01:37:18.652Z,702.00
2022-12-08T01:37:48.770Z,703.00
2022-12-08T01:38:18.789Z,703.00
2022-12-08T01:38:48.786Z,704.00
2022-12-08T01:39:18.916Z,704.00
2022-12-08T01:39:48.911Z,706.00
2022-12-08T01:40:18.904Z,705.00
2022-12-08T01:40:49.016Z,705.00
2022-12-08T01:41:19.018Z,705.00
2022-12-08T01:41:49.132Z,707.00
2022-12-08T01:42:19.250Z,705.00
2022-12-08T01:42:49.390Z,704.00
2022-12-08T01:43:19.391Z,706.00
2022-12-08T01:43:49.510Z,706.00
2022-12-08T01:44:19.629Z,706.00
2022-12-08T01:44:49.621Z,707.00
2022-12-08T01:45:19.615Z,706.00
2022-12-08T01:45:49.817Z,705.00
2022-12-08T01:46:19.878Z,705.00
2022-12-08T01:46:49.870Z,705.00
2022-12-08T01:47:19.977Z,705.00
2022-12-08T01:47:50.076Z,704.00
2022-12-08T01:48:20.061Z,704.00
2022-12-08T01:48:50.084Z,703.00
2022-12-08T01:49:20.077Z,701.00
2022-12-08T01:49:50.196Z,700.00
2022-12-08T01:50:20.272Z,699.00
2022-12-08T01:50:50.359Z,700.00
2022-12-08T01:51:20.450Z,701.00
2022-12-08T01:51:50.532Z,702.00
2022-12-08T01:52:20.614Z,702.00
2022-12-08T01:52:50.696Z,701.00
2022-12-08T01:53:20.778Z,702.00
2022-12-08T01:53:50.858Z,701.00
2022-12-08T01:54:20.950Z,701.00
2022-12-08T01:54:51.027Z,702.00
2022-12-08T01:55:21.101Z,700.00
2022-12-08T01:55:51.193Z,700.00
2022-12-08T01:56:21.282Z,699.00
2022-12-08T01:56:51.359Z,700.00
2022-12-08T01:57:21.442Z,701.00
2022-12-08T01:57:51.528Z,700.00
2022-12-08T01:58:21.607Z,701.00
2022-12-08T01:58:51.693Z,700.00
2022-12-08T01:59:21.778Z,701.00
2022-12-08T01:59:51.863Z,702.00
2022-12-08T02:00:21.983Z,701.00
2022-12-08T02:00:52.072Z,700.00
2022-12-08T02:01:22.090Z,700.00
2022-12-08T02:01:52.154Z,699.00
2022-12-08T02:02:22.142Z,700.00
2022-12-08T02:02:52.201Z,699.00
2022-12-08T02:03:22.158Z,701.00
2022-12-08T02:03:52.159Z,701.00
2022-12-08T02:04:22.161Z,702.00
2022-12-08T02:04:52.155Z,702.00
2022-12-08T02:05:22.291Z,701.00
2022-12-08T02:05:52.288Z,701.00
2022-12-08T02:06:22.396Z,700.00
2022-12-08T02:06:52.515Z,699.00
2022-12-08T02:07:22.511Z,698.00
2022-12-08T02:07:52.668Z,699.00
2022-12-08T02:08:22.695Z,699.00
2022-12-08T02:08:52.699Z,699.00
2022-12-08T02:09:22.820Z,698.00
2022-12-08T02:09:52.809Z,699.00
2022-12-08T02:10:22.810Z,696.00
2022-12-08T02:10:52.924Z,697.00
2022-12-08T02:11:22.940Z,697.00
2022-12-08T02:11:52.943Z,697.00
2022-12-08T02:12:23.066Z,696.00
2022-12-08T02:12:53.169Z,695.00
2022-12-08T02:13:23.166Z,693.00
2022-12-08T02:13:53.287Z,693.00
2022-12-08T02:14:23.405Z,693.00
2022-12-08T02:14:53.401Z,694.00
2022-12-08T02:15:23.519Z,694.00
2022-12-08T02:15:53.738Z,695.00
2022-12-08T02:16:23.795Z,696.00
2022-12-08T02:16:53.773Z,696.00
2022-12-08T02:17:23.890Z,698.00
2022-12-08T02:17:53.886Z,698.00
2022-12-08T02:18:24.005Z,699.00
2022-12-08T02:19:22.456Z,699.00
2022-12-08T02:19:31.858Z,699.00
2022-12-08T02:19:54.158Z,700.00
2022-12-08T02:20:24.154Z,700.00
2022-12-08T02:20:54.155Z,698.00
2022-12-08T02:21:24.141Z,696.00
2022-12-08T02:21:54.264Z,696.00
2022-12-08T02:22:24.256Z,697.00
2022-12-08T02:22:54.253Z,695.00
2022-12-08T02:23:24.367Z,695.00
2022-12-08T02:23:54.493Z,696.00
2022-12-08T02:24:24.485Z,696.00
2022-12-08T02:24:54.606Z,697.00
2022-12-08T02:25:24.603Z,697.00
2022-12-08T02:25:54.721Z,699.00
2022-12-08T02:26:24.841Z,697.00
2022-12-08T02:26:54.960Z,695.00
2022-12-08T02:27:24.957Z,693.00
2022-12-08T02:27:54.952Z,694.00
2022-12-08T02:28:25.066Z,694.00
2022-12-08T02:28:55.063Z,694.00
2022-12-08T02:29:25.181Z,695.00
2022-12-08T02:29:55.296Z,694.00
2022-12-08T02:30:25.295Z,695.00
2022-12-08T02:30:55.456Z,695.00
2022-12-08T02:31:25.395Z,693.00
2022-12-08T02:31:55.412Z,693.00
2022-12-08T02:32:25.405Z,691.00
2022-12-08T02:32:55.521Z,691.00
2022-12-08T02:33:25.515Z,691.00
2022-12-08T02:33:55.638Z,691.00
2022-12-08T02:34:25.751Z,691.00
2022-12-08T02:34:55.749Z,690.00
2022-12-08T02:35:25.740Z,691.00
2022-12-08T02:35:55.860Z,690.00
2022-12-08T02:36:25.854Z,688.00
2022-12-08T02:36:55.886Z,688.00
2022-12-08T02:37:25.879Z,687.00
2022-12-08T02:37:55.996Z,688.00
2022-12-08T02:38:25.993Z,687.00
2022-12-08T02:38:56.116Z,688.00
2022-12-08T02:39:26.105Z,687.00
2022-12-08T02:39:56.223Z,687.00
2022-12-08T02:40:26.342Z,687.00
2022-12-08T02:40:56.459Z,687.00
2022-12-08T02:41:26.459Z,688.00
2022-12-08T02:41:56.454Z,688.00
2022-12-08T02:42:26.564Z,686.00
2022-12-08T02:42:56.686Z,687.00
2022-12-08T02:43:26.685Z,686.00
2022-12-08T02:43:56.817Z,685.00
2022-12-08T02:44:26.829Z,683.00
2022-12-08T02:44:56.823Z,685.00
2022-12-08T02:45:26.948Z,685.00
2022-12-08T02:45:56.976Z,687.00
2022-12-08T02:46:27.029Z,686.00
2022-12-08T02:46:57.065Z,687.00
2022-12-08T02:47:27.031Z,686.00
2022-12-08T02:47:57.151Z,686.00
2022-12-08T02:48:27.146Z,687.00
2022-12-08T02:48:57.269Z,686.00
2022-12-08T02:49:27.262Z,687.00
2022-12-08T02:49:57.369Z,688.00
2022-12-08T02:50:27.453Z,686.00
2022-12-08T02:50:57.532Z,684.00
2022-12-08T02:51:27.619Z,685.00
2022-12-08T02:51:57.700Z,685.00
2022-12-08T02:52:27.780Z,687.00
2022-12-08T02:52:57.854Z,686.00
2022-12-08T02:53:27.938Z,684.00
2022-12-08T02:53:58.035Z,684.00
2022-12-08T02:54:28.113Z,684.00
2022-12-08T02:54:58.193Z,683.00
2022-12-08T02:55:28.278Z,682.00
2022-12-08T02:55:58.382Z,681.00
2022-12-08T02:56:28.467Z,680.00
2022-12-08T02:56:58.545Z,681.00
2022-12-08T02:57:28.632Z,680.00
2022-12-08T02:57:58.711Z,679.00
2022-12-08T02:58:28.797Z,679.00
2022-12-08T02:58:58.902Z,680.00
2022-12-08T02:59:28.978Z,681.00
2022-12-08T02:59:59.079Z,680.00
2022-12-08T03:00:29.196Z,680.00
2022-12-08T03:00:59.193Z,681.00
2022-12-08T03:01:29.371Z,682.00
2022-12-08T03:01:59.481Z,681.00
2022-12-08T03:02:29.537Z,681.00
2022-12-08T03:02:59.582Z,679.00
2022-12-08T03:03:29.596Z,681.00
2022-12-08T03:03:59.592Z,680.00
2022-12-08T03:04:29.588Z,680.00
2022-12-08T03:04:59.708Z,680.00
2022-12-08T03:05:29.707Z,681.00
2022-12-08T03:05:59.708Z,680.00
2022-12-08T03:06:29.702Z,681.00
2022-12-08T03:06:59.700Z,680.00
2022-12-08T03:07:29.703Z,680.00
2022-12-08T03:07:59.794Z,678.00
2022-12-08T03:08:29.857Z,677.00
2022-12-08T03:08:59.854Z,678.00
2022-12-08T03:09:29.852Z,679.00
2022-12-08T03:09:59.844Z,678.00
2022-12-08T03:10:29.840Z,676.00
2022-12-08T03:10:59.962Z,676.00
2022-12-08T03:11:30.077Z,677.00
2022-12-08T03:12:00.086Z,676.00
2022-12-08T03:12:30.069Z,675.00
2022-12-08T03:13:00.190Z,676.00
2022-12-08T03:13:30.312Z,675.00
2022-12-08T03:14:00.307Z,676.00
2022-12-08T03:14:30.427Z,678.00
2022-12-08T03:15:00.544Z,677.00
2022-12-08T03:15:30.615Z,677.00
2022-12-08T03:16:00.701Z,677.00
2022-12-08T03:16:30.801Z,677.00
2022-12-08T03:17:00.779Z,677.00
2022-12-08T03:17:30.929Z,679.00
2022-12-08T03:18:00.935Z,679.00
2022-12-08T03:18:30.914Z,679.00
2022-12-08T03:19:00.910Z,680.00
2022-12-08T03:19:31.022Z,679.00
2022-12-08T03:20:01.416Z,680.00
2022-12-08T03:20:31.253Z,681.00
2022-12-08T03:21:01.246Z,682.00
2022-12-08T03:21:31.243Z,681.00
2022-12-08T03:22:01.233Z,683.00
2022-12-08T03:22:31.357Z,682.00
2022-12-08T03:23:01.350Z,681.00
2022-12-08T03:23:31.350Z,681.00
2022-12-08T03:24:01.344Z,679.00
2022-12-08T03:24:31.465Z,678.00
2022-12-08T03:25:01.583Z,677.00
2022-12-08T03:25:31.582Z,677.00
2022-12-08T03:26:01.702Z,676.00
2022-12-08T03:26:31.818Z,676.00
2022-12-08T03:27:01.812Z,676.00
2022-12-08T03:27:31.814Z,674.00
2022-12-08T03:28:01.804Z,675.00
2022-12-08T03:28:31.824Z,675.00
2022-12-08T03:29:01.839Z,675.00
2022-12-08T03:29:31.957Z,676.00
2022-12-08T03:30:02.220Z,676.00
2022-12-08T03:30:32.055Z,676.00
2022-12-08T03:31:02.135Z,675.00
2022-12-08T03:31:32.210Z,676.00
2022-12-08T03:32:02.221Z,674.00
2022-12-08T03:32:32.222Z,674.00
2022-12-08T03:33:02.238Z,675.00
2022-12-08T03:33:32.216Z,676.00
2022-12-08T03:34:02.218Z,676.00
2022-12-08T03:34:32.213Z,674.00
2022-12-08T03:35:02.214Z,674.00
2022-12-08T03:35:32.209Z,676.00
2022-12-08T03:36:02.322Z,674.00
2022-12-08T03:36:32.321Z,673.00
2022-12-08T03:37:02.315Z,674.00
2022-12-08T03:37:32.441Z,673.00
2022-12-08T03:38:02.432Z,673.00
2022-12-08T03:38:32.568Z,674.00
2022-12-08T03:39:02.560Z,674.00
2022-12-08T03:39:32.678Z,674.00
2022-12-08T03:40:02.981Z,674.00
2022-12-08T03:40:32.722Z,674.00
2022-12-08T03:41:02.831Z,675.00
2022-12-08T03:41:32.834Z,676.00
2022-12-08T03:42:02.829Z,676.00
2022-12-08T03:42:32.951Z,675.00
2022-12-08T03:43:02.942Z,675.00
2022-12-08T03:43:32.940Z,673.00
2022-12-08T03:44:02.937Z,673.00
2022-12-08T03:44:32.931Z,674.00
2022-12-08T03:45:02.927Z,674.00
2022-12-08T03:45:33.045Z,674.00
2022-12-08T03:46:03.117Z,674.00
2022-12-08T03:46:33.127Z,673.00
2022-12-08T03:47:03.119Z,674.00
2022-12-08T03:47:33.239Z,673.00
2022-12-08T03:48:03.232Z,672.00
2022-12-08T03:48:33.255Z,671.00
2022-12-08T03:49:03.223Z,671.00
2022-12-08T03:49:33.224Z,670.00
2022-12-08T03:50:03.821Z,671.00
2022-12-08T03:50:33.424Z,671.00
2022-12-08T03:51:03.507Z,674.00
2022-12-08T03:51:33.593Z,673.00
2022-12-08T03:52:03.668Z,673.00
2022-12-08T03:52:33.748Z,673.00
2022-12-08T03:53:03.830Z,674.00
2022-12-08T03:53:33.926Z,673.00
2022-12-08T03:54:04.011Z,671.00
2022-12-08T03:54:34.111Z,669.00
2022-12-08T03:55:04.192Z,668.00
2022-12-08T03:55:34.276Z,668.00
2022-12-08T03:56:04.360Z,669.00
2022-12-08T03:56:34.437Z,667.00
2022-12-08T03:57:04.523Z,668.00
2022-12-08T03:57:34.605Z,668.00
2022-12-08T03:58:04.682Z,669.00
2022-12-08T03:58:37.593Z,669.00
2022-12-08T03:59:04.770Z,670.00
2022-12-08T03:59:34.847Z,669.00
2022-12-08T04:00:05.239Z,669.00
2022-12-08T04:00:35.028Z,667.00
2022-12-08T04:01:05.021Z,666.00
2022-12-08T04:01:35.063Z,666.00
2022-12-08T04:02:05.153Z,666.00
2022-12-08T04:02:35.201Z,668.00
2022-12-08T04:03:05.227Z,670.00
2022-12-08T04:03:35.241Z,670.00
2022-12-08T04:04:05.261Z,671.00
2022-12-08T04:04:35.348Z,672.00
2022-12-08T04:05:05.344Z,673.00
2022-12-08T04:05:35.343Z,672.00
2022-12-08T04:06:05.456Z,672.00
2022-12-08T04:06:35.459Z,671.00
2022-12-08T04:07:05.454Z,670.00
2022-12-08T04:07:35.724Z,670.00
2022-12-08T04:08:05.795Z,667.00
2022-12-08T04:08:35.686Z,666.00
2022-12-08T04:09:05.685Z,667.00
2022-12-08T04:09:35.799Z,668.00
2022-12-08T04:10:06.015Z,667.00
2022-12-08T04:10:35.802Z,666.00
2022-12-08T04:11:05.919Z,667.00
2022-12-08T04:11:35.913Z,667.00
2022-12-08T04:12:05.909Z,667.00
2022-12-08T04:12:36.024Z,668.00
2022-12-08T04:13:06.016Z,668.00
2022-12-08T04:13:36.024Z,670.00
2022-12-08T04:14:06.013Z,671.00
2022-12-08T04:14:36.125Z,672.00
2022-12-08T04:15:06.121Z,672.00
2022-12-08T04:15:36.319Z,670.00
2022-12-08T04:16:06.399Z,671.00
2022-12-08T04:16:36.336Z,671.00
2022-12-08T04:17:06.328Z,670.00
2022-12-08T04:17:36.450Z,669.00
2022-12-08T04:18:06.438Z,668.00
2022-12-08T04:18:36.443Z,670.00
2022-12-08T04:19:06.554Z,669.00
2022-12-08T04:19:36.699Z,670.00
2022-12-08T04:20:07.134Z,670.00
2022-12-08T04:20:36.698Z,671.00
2022-12-08T04:21:06.692Z,669.00
2022-12-08T04:21:36.688Z,668.00
2022-12-08T04:22:06.682Z,667.00
2022-12-08T04:22:36.800Z,665.00
2022-12-08T04:23:06.924Z,666.00
2022-12-08T04:23:36.978Z,665.00
2022-12-08T04:24:07.094Z,665.00
2022-12-08T04:24:37.214Z,666.00
2022-12-08T04:25:07.214Z,667.00
2022-12-08T04:25:37.207Z,666.00
2022-12-08T04:26:07.203Z,666.00
2022-12-08T04:26:37.323Z,666.00
2022-12-08T04:27:07.316Z,667.00
2022-12-08T04:27:37.323Z,666.00
2022-12-08T04:28:07.321Z,666.00
2022-12-08T04:28:37.437Z,667.00
2022-12-08T04:29:07.556Z,668.00
2022-12-08T04:29:37.671Z,670.00
2022-12-08T04:30:08.039Z,671.00
2022-12-08T04:30:37.834Z,671.00
2022-12-08T04:31:07.876Z,673.00
2022-12-08T04:31:37.984Z,674.00
2022-12-08T04:32:07.874Z,674.00
2022-12-08T04:32:41.642Z,673.00
2022-12-08T04:33:07.894Z,672.00
2022-12-08T04:33:37.892Z,673.00
2022-12-08T04:34:08.004Z,673.00
2022-12-08T04:34:38.124Z,672.00
2022-12-08T04:35:08.268Z,672.00
2022-12-08T04:35:38.362Z,672.00
2022-12-08T04:36:08.354Z,673.00
2022-12-08T04:36:38.356Z,675.00
2022-12-08T04:37:08.350Z,673.00
2022-12-08T04:37:38.469Z,673.00
2022-12-08T04:38:08.479Z,674.00
2022-12-08T04:38:38.474Z,676.00
2022-12-08T04:39:08.588Z,674.00
2022-12-08T04:39:38.599Z,674.00
2022-12-08T04:40:08.716Z,674.00
2022-12-08T04:40:38.834Z,676.00
2022-12-08T04:41:08.951Z,676.00
2022-12-08T04:41:38.947Z,675.00
2022-12-08T04:42:08.945Z,676.00
2022-12-08T04:42:39.060Z,675.00
2022-12-08T04:43:09.066Z,674.00
2022-12-08T04:43:39.068Z,673.00
2022-12-08T04:44:09.057Z,674.00
2022-12-08T04:44:39.062Z,674.00
2022-12-08T04:45:09.178Z,674.00
2022-12-08T04:45:39.178Z,675.00
2022-12-08T04:46:09.470Z,674.00
2022-12-08T04:46:43.387Z,673.00
2022-12-08T04:47:09.506Z,672.00
2022-12-08T04:47:39.406Z,672.00
2022-12-08T04:48:09.519Z,673.00
2022-12-08T04:48:39.531Z,674.00
2022-12-08T04:49:09.532Z,675.00
2022-12-08T04:49:39.648Z,678.00
2022-12-08T04:50:09.737Z,677.00
2022-12-08T04:50:39.842Z,675.00
2022-12-08T04:51:09.901Z,676.00
2022-12-08T04:51:39.981Z,677.00
2022-12-08T04:52:10.063Z,678.00
2022-12-08T04:52:40.147Z,676.00
2022-12-08T04:53:10.227Z,675.00
2022-12-08T04:53:46.127Z,673.00
2022-12-08T04:54:10.314Z,673.00
2022-12-08T04:54:40.393Z,673.00
2022-12-08T04:55:10.476Z,673.00
2022-12-08T04:55:40.567Z,672.00
2022-12-08T04:56:10.644Z,673.00
2022-12-08T04:56:40.728Z,674.00
2022-12-08T04:57:10.812Z,675.00
2022-12-08T04:57:40.888Z,675.00
2022-12-08T04:58:10.991Z,677.00
2022-12-08T04:58:41.074Z,676.00
2022-12-08T04:59:11.153Z,678.00
2022-12-08T04:59:41.237Z,677.00
2022-12-08T05:00:11.232Z,676.00
2022-12-08T05:00:41.351Z,678.00
2022-12-08T05:01:11.545Z,678.00
2022-12-08T05:01:41.672Z,679.00
2022-12-08T05:02:11.781Z,681.00
2022-12-08T05:02:41.768Z,683.00
2022-12-08T05:03:11.752Z,683.00
2022-12-08T05:03:41.750Z,684.00
2022-12-08T05:04:11.877Z,684.00
2022-12-08T05:04:41.858Z,685.00
2022-12-08T05:05:11.984Z,683.00
2022-12-08T05:05:41.973Z,685.00
2022-12-08T05:06:11.996Z,686.00
2022-12-08T05:06:41.960Z,686.00
2022-12-08T05:07:12.084Z,686.00
2022-12-08T05:07:42.179Z,685.00
2022-12-08T05:08:12.258Z,686.00
2022-12-08T05:08:42.252Z,685.00
2022-12-08T05:09:12.370Z,683.00
2022-12-08T05:09:42.372Z,681.00
2022-12-08T05:10:12.488Z,681.00
2022-12-08T05:10:42.606Z,681.00
2022-12-08T05:11:12.730Z,679.00
2022-12-08T05:11:48.370Z,676.00
2022-12-08T05:12:12.735Z,675.00
2022-12-08T05:12:42.728Z,676.00
2022-12-08T05:13:12.874Z,674.00
2022-12-08T05:13:42.865Z,673.00
2022-12-08T05:14:12.861Z,672.00
2022-12-08T05:14:42.856Z,672.00
2022-12-08T05:15:12.864Z,675.00
2022-12-08T05:15:42.980Z,677.00
2022-12-08T05:16:13.253Z,679.00
2022-12-08T05:16:43.220Z,679.00
2022-12-08T05:17:13.245Z,680.00
2022-12-08T05:17:43.243Z,680.00
2022-12-08T05:18:13.273Z,680.00
2022-12-08T05:18:43.264Z,680.00
2022-12-08T05:19:13.260Z,682.00
2022-12-08T05:19:43.278Z,683.00
2022-12-08T05:20:13.376Z,683.00
2022-12-08T05:20:43.379Z,683.00
2022-12-08T05:21:13.491Z,685.00
2022-12-08T05:21:43.631Z,683.00
2022-12-08T05:22:13.604Z,682.00
2022-12-08T05:22:43.721Z,682.00
2022-12-08T05:23:13.876Z,682.00
2022-12-08T05:23:43.871Z,682.00
2022-12-08T05:24:13.868Z,684.00
2022-12-08T05:24:47.360Z,684.00
2022-12-08T05:25:14.042Z,685.00
2022-12-08T05:25:44.035Z,685.00
2022-12-08T05:26:14.151Z,688.00
2022-12-08T05:26:44.269Z,689.00
2022-12-08T05:27:14.389Z,690.00
2022-12-08T05:27:44.383Z,692.00
2022-12-08T05:28:40.263Z,693.00
2022-12-08T05:28:44.659Z,695.00
2022-12-08T05:29:14.644Z,696.00
2022-12-08T05:29:44.641Z,699.00
2022-12-08T05:30:14.631Z,699.00
2022-12-08T05:30:44.748Z,699.00
2022-12-08T05:31:14.962Z,701.00
2022-12-08T05:31:45.029Z,701.00
2022-12-08T05:32:15.035Z,700.00
2022-12-08T05:32:45.027Z,700.00
2022-12-08T05:33:15.179Z,702.00
2022-12-08T05:33:45.172Z,703.00
2022-12-08T05:34:15.170Z,703.00
2022-12-08T05:34:45.201Z,703.00
2022-12-08T05:35:15.320Z,701.00
2022-12-08T05:35:45.319Z,702.00
2022-12-08T05:36:15.437Z,702.00
2022-12-08T05:36:45.575Z,700.00
2022-12-08T05:37:15.673Z,699.00
2022-12-08T05:37:45.675Z,700.00
2022-12-08T05:38:15.687Z,700.00
2022-12-08T05:38:45.677Z,698.00
2022-12-08T05:39:15.682Z,697.00
2022-12-08T05:39:45.795Z,697.00
2022-12-08T05:40:15.796Z,697.00
2022-12-08T05:40:45.791Z,699.00
2022-12-08T05:41:15.788Z,700.00
2022-12-08T05:41:45.908Z,700.00
2022-12-08T05:42:19.347Z,700.00
2022-12-08T05:42:45.925Z,705.00
2022-12-08T05:43:16.063Z,708.00
2022-12-08T05:43:46.060Z,708.00
2022-12-08T05:44:16.057Z,708.00
2022-12-08T05:44:46.176Z,707.00
2022-12-08T05:45:16.174Z,707.00
2022-12-08T05:45:46.201Z,709.00
2022-12-08T05:46:16.326Z,707.00
2022-12-08T05:46:46.228Z,708.00
2022-12-08T05:47:16.223Z,708.00
2022-12-08T05:47:46.355Z,709.00
2022-12-08T05:48:16.349Z,710.00
2022-12-08T05:48:46.344Z,713.00
2022-12-08T05:49:16.342Z,713.00
2022-12-08T05:49:46.459Z,712.00
2022-12-08T05:50:16.541Z,713.00
2022-12-08T05:50:46.621Z,715.00
2022-12-08T05:51:16.700Z,717.00
2022-12-08T05:51:46.781Z,718.00
2022-12-08T05:52:16.943Z,717.00
2022-12-08T05:52:46.881Z,717.00
2022-12-08T05:53:16.957Z,718.00
2022-12-08T05:53:47.050Z,720.00
2022-12-08T05:54:17.135Z,723.00
2022-12-08T05:54:47.208Z,724.00
2022-12-08T05:55:17.287Z,725.00
2022-12-08T05:55:47.384Z,726.00
2022-12-08T05:56:17.449Z,727.00
2022-12-08T05:56:47.531Z,727.00
2022-12-08T05:57:17.615Z,728.00
2022-12-08T05:57:47.694Z,727.00
2022-12-08T05:58:17.775Z,730.00
2022-12-08T05:58:47.854Z,730.00
2022-12-08T05:59:17.937Z,730.00
2022-12-08T05:59:48.021Z,730.00
2022-12-08T06:00:18.138Z,730.00
2022-12-08T06:00:48.131Z,729.00
2022-12-08T06:01:18.129Z,728.00
2022-12-08T06:01:48.290Z,730.00
2022-12-08T06:02:18.420Z,730.00
2022-12-08T06:02:48.423Z,731.00
2022-12-08T06:03:18.506Z,731.00
2022-12-08T06:03:48.416Z,731.00
2022-12-08T06:04:18.416Z,732.00
2022-12-08T06:04:48.534Z,732.00
2022-12-08T06:05:18.651Z,733.00
2022-12-08T06:05:48.770Z,733.00
2022-12-08T06:06:18.890Z,732.00
2022-12-08T06:06:48.883Z,735.00
2022-12-08T06:07:18.904Z,736.00
2022-12-08T06:07:48.967Z,737.00
2022-12-08T06:08:19.091Z,739.00
2022-12-08T06:08:49.013Z,741.00
2022-12-08T06:09:19.036Z,741.00
2022-12-08T06:09:49.035Z,742.00
2022-12-08T06:10:19.150Z,746.00
2022-12-08T06:10:49.269Z,748.00
2022-12-08T06:11:19.271Z,749.00
2022-12-08T06:11:49.385Z,746.00
2022-12-08T06:12:19.502Z,746.00
2022-12-08T06:12:49.501Z,749.00
2022-12-08T06:13:19.500Z,750.00
2022-12-08T06:13:49.725Z,750.00
2022-12-08T06:14:19.696Z,749.00
2022-12-08T06:14:49.691Z,748.00